Time;durP1;ratioP1;P1;durP2;ratioP2;P2;SDS_P1;SDS_P2;PMS_P1;PMS_P2;Temp;Humidity;BMP_temperature;BMP_pressure;BME280_temperature;BME280_humidity;BME280_pressure;Samples;Min_cycle;Max_cycle;Signal;HPM_P1;HPM_P2
2024/03/03 06:00:23;;;;;;;45.25;24.45;;;6.30;94.00;;;;;;4961323;23;20029;31
2024/03/03 06:02:27;;;;;;;45.70;23.98;;;6.30;95.10;;;;;;4021714;29;20509;-79
2024/03/03 06:04:28;;;;;;;48.33;25.10;;;6.30;94.40;;;;;;4023042;29;20057;-77
2024/03/03 06:06:30;;;;;;;46.17;24.92;;;6.30;94.70;;;;;;4022405;29;20061;-78
2024/03/03 06:08:32;;;;;;;47.67;24.25;;;6.30;94.50;;;;;;4019397;29;20050;-79
2024/03/03 06:10:33;;;;;;;50.70;25.58;;;6.30;94.10;;;;;;4018742;29;20046;-78
2024/03/03 06:12:35;;;;;;;50.13;25.45;;;6.30;94.20;;;;;;4022051;29;20112;-78
2024/03/03 06:14:37;;;;;;;53.85;26.55;;;6.20;94.30;;;;;;4021845;29;20050;-78
2024/03/03 06:16:39;;;;;;;46.75;24.40;;;6.20;94.10;;;;;;4022319;29;20050;-79
2024/03/03 06:18:42;;;;;;;46.72;24.08;;;6.10;93.90;;;;;;4022159;29;20089;-82
2024/03/03 06:20:44;;;;;;;43.78;23.90;;;6.00;94.10;;;;;;4021801;29;20113;-78
2024/03/03 06:22:46;;;;;;;48.78;24.08;;;6.00;94.10;;;;;;4017680;29;20111;-78
2024/03/03 06:24:47;;;;;;;47.22;24.92;;;6.00;94.30;;;;;;4014849;29;20385;-78
2024/03/03 06:26:49;;;;;;;47.00;24.58;;;6.10;94.70;;;;;;4021974;29;20049;-79
2024/03/03 06:28:51;;;;;;;52.97;25.70;;;6.20;94.70;;;;;;4023747;29;20475;-79
2024/03/03 06:30:53;;;;;;;46.25;24.83;;;6.30;94.50;;;;;;4024278;29;20118;-73
2024/03/03 06:32:55;;;;;;;49.20;25.80;;;6.30;94.70;;;;;;4024608;29;20056;-81
2024/03/03 06:34:57;;;;;;;51.63;26.42;;;6.40;95.00;;;;;;4024555;29;20060;-79
2024/03/03 06:37:02;;;;;;;46.38;24.80;;;6.40;94.50;;;;;;4024618;29;20081;-77
2024/03/03 06:39:04;;;;;;;46.65;25.23;;;6.40;94.30;;;;;;4024522;29;20396;-77
2024/03/03 06:41:07;;;;;;;48.30;24.98;;;6.50;94.20;;;;;;4015959;29;20129;-77
2024/03/03 06:43:08;;;;;;;44.35;24.48;;;6.60;94.30;;;;;;4023937;29;20097;-80
2024/03/03 06:45:10;;;;;;;46.25;24.63;;;6.60;94.10;;;;;;4024492;29;20122;-79
2024/03/03 06:47:12;;;;;;;46.97;24.30;;;6.60;94.20;;;;;;4017403;29;20106;-79
2024/03/03 06:49:14;;;;;;;45.00;23.65;;;6.60;94.00;;;;;;4019085;29;20560;-79
2024/03/03 06:51:16;;;;;;;45.42;24.08;;;6.70;93.80;;;;;;4012775;29;20058;-78
2024/03/03 06:53:18;;;;;;;41.13;21.90;;;6.70;93.70;;;;;;4024180;29;20663;-80
2024/03/03 06:55:21;;;;;;;40.33;22.25;;;6.70;93.40;;;;;;4025177;29;20080;-79
2024/03/03 06:57:23;;;;;;;43.47;22.90;;;6.70;93.50;;;;;;4021815;29;20057;-78
2024/03/03 06:59:27;;;;;;;37.80;20.90;;;6.70;93.10;;;;;;4030436;29;20049;-80
2024/03/03 07:01:30;;;;;;;38.10;21.05;;;6.70;93.10;;;;;;4022062;29;20054;-79
2024/03/03 07:03:54;;;;;;;35.08;20.42;;;6.70;93.20;;;;;;4013972;29;20078;-76
2024/03/03 07:05:56;;;;;;;42.50;22.80;;;6.70;93.20;;;;;;4013356;29;20057;-79
2024/03/03 07:07:59;;;;;;;39.20;21.60;;;6.70;93.30;;;;;;4021708;29;20081;-80
2024/03/03 07:10:01;;;;;;;37.50;21.25;;;6.70;93.20;;;;;;4024831;29;20117;-77
2024/03/03 07:12:03;;;;;;;41.30;21.33;;;6.80;93.50;;;;;;4020094;29;20063;-76
2024/03/03 07:14:05;;;;;;;40.13;21.25;;;6.80;93.50;;;;;;4030997;29;20060;-76
2024/03/03 07:16:08;;;;;;;38.58;21.88;;;6.80;93.40;;;;;;4034818;29;20139;-77
2024/03/03 07:18:09;;;;;;;42.58;22.02;;;6.80;93.50;;;;;;4014587;29;20050;-78
2024/03/03 07:20:11;;;;;;;41.20;22.30;;;6.80;93.60;;;;;;4019817;29;20492;-78
2024/03/03 07:22:12;;;;;;;43.00;23.42;;;6.80;93.80;;;;;;4008637;29;20050;-77
2024/03/03 07:24:17;;;;;;;47.38;23.48;;;6.80;93.80;;;;;;4025352;29;20065;-76
2024/03/03 07:26:18;;;;;;;43.85;24.55;;;6.70;94.20;;;;;;4032001;29;20552;-76
2024/03/03 07:28:19;;;;;;;47.40;25.90;;;6.80;94.50;;;;;;4021599;29;20053;-76
2024/03/03 07:30:22;;;;;;;48.35;25.83;;;6.80;94.60;;;;;;4016974;29;20049;-77
2024/03/03 07:32:23;;;;;;;44.63;25.38;;;6.80;94.70;;;;;;4020954;29;20149;-77
2024/03/03 07:34:25;;;;;;;48.45;26.15;;;6.70;95.00;;;;;;4023347;29;20113;-77
2024/03/03 07:36:26;;;;;;;52.33;26.88;;;6.80;95.10;;;;;;4021196;29;20124;-78
2024/03/03 07:38:28;;;;;;;50.55;25.95;;;6.70;95.40;;;;;;4020706;29;20583;-79
2024/03/03 07:40:36;;;;;;;46.53;25.15;;;6.60;95.70;;;;;;4021752;29;20623;-78
2024/03/03 07:42:38;;;;;;;50.78;26.20;;;6.60;95.90;;;;;;4022004;29;20061;-77
2024/03/03 07:44:40;;;;;;;52.88;26.50;;;6.70;96.00;;;;;;4019850;29;20045;-78
2024/03/03 07:46:42;;;;;;;49.47;26.05;;;6.80;96.10;;;;;;4021784;29;20449;-78
2024/03/03 07:48:44;;;;;;;51.47;26.65;;;6.80;96.00;;;;;;4021753;29;20057;-78
2024/03/03 07:50:46;;;;;;;51.55;27.25;;;6.90;96.10;;;;;;4021767;29;20056;-77
2024/03/03 07:52:48;;;;;;;52.72;27.35;;;6.80;96.60;;;;;;4022026;29;20436;-78
2024/03/03 07:54:50;;;;;;;48.58;27.75;;;6.80;96.50;;;;;;4021844;29;20121;-78
2024/03/03 07:56:53;;;;;;;46.80;25.95;;;6.90;96.30;;;;;;4021349;29;20148;-78
2024/03/03 07:58:55;;;;;;;48.55;24.95;;;7.00;96.20;;;;;;4021753;29;20053;-76
2024/03/03 08:00:55;;;;;;;45.63;24.80;;;7.10;96.10;;;;;;4021176;29;20129;-76
2024/03/03 08:02:57;;;;;;;43.63;23.70;;;7.20;96.00;;;;;;4021414;29;20483;-78
2024/03/03 08:04:59;;;;;;;46.83;24.83;;;7.20;95.80;;;;;;4032377;29;20085;-77
2024/03/03 08:07:01;;;;;;;42.90;23.95;;;7.20;95.80;;;;;;4036679;29;20053;-78
2024/03/03 08:09:04;;;;;;;46.80;26.02;;;7.30;95.70;;;;;;4036078;29;20142;-78
2024/03/03 08:11:06;;;;;;;45.72;24.30;;;7.40;95.70;;;;;;4037040;29;20577;-78
2024/03/03 08:13:09;;;;;;;40.88;23.02;;;7.50;95.70;;;;;;4030697;29;20057;-80
2024/03/03 08:15:11;;;;;;;37.72;22.35;;;7.50;95.30;;;;;;4016809;29;20048;-80
2024/03/03 08:17:13;;;;;;;41.38;22.83;;;7.60;95.40;;;;;;4022468;29;20126;-80
2024/03/03 08:19:15;;;;;;;40.22;22.85;;;7.60;95.30;;;;;;4019874;29;20102;-79
2024/03/03 08:21:16;;;;;;;42.75;24.15;;;7.60;94.90;;;;;;4021569;29;20101;-78
2024/03/03 08:23:18;;;;;;;42.03;24.08;;;7.60;95.30;;;;;;4019926;29;20057;-79
2024/03/03 08:25:21;;;;;;;42.30;23.80;;;7.60;95.10;;;;;;4024486;29;20166;-78
2024/03/03 08:27:22;;;;;;;42.67;23.50;;;7.60;95.30;;;;;;4021343;29;20050;-75
2024/03/03 08:29:26;;;;;;;38.13;21.98;;;7.70;94.90;;;;;;4022744;29;20113;-79
2024/03/03 08:31:27;;;;;;;38.78;21.40;;;7.70;95.00;;;;;;4020890;29;20073;-76
2024/03/03 08:33:29;;;;;;;37.25;22.40;;;7.80;95.00;;;;;;4021012;29;20106;-76
2024/03/03 08:35:31;;;;;;;41.67;22.40;;;7.90;94.90;;;;;;4018674;29;20049;-80
2024/03/03 08:37:34;;;;;;;40.28;21.30;;;8.00;94.80;;;;;;4012809;29;20125;-80
2024/03/03 08:39:35;;;;;;;39.42;23.38;;;8.00;94.60;;;;;;4019420;29;20049;-78
2024/03/03 08:41:41;;;;;;;36.55;21.17;;;8.10;94.60;;;;;;4020140;29;20049;-80
2024/03/03 08:43:43;;;;;;;40.75;22.15;;;8.10;94.50;;;;;;4007365;29;20074;-79
2024/03/03 08:45:46;;;;;;;38.80;21.92;;;8.20;94.50;;;;;;4013410;29;20054;-80
2024/03/03 08:47:47;;;;;;;38.40;22.27;;;8.20;94.40;;;;;;4006632;29;20761;-78
2024/03/03 08:49:49;;;;;;;37.83;21.00;;;8.20;94.40;;;;;;4007326;29;20168;-79
2024/03/03 08:51:51;;;;;;;36.70;21.33;;;8.20;94.50;;;;;;4019273;29;20053;-78
2024/03/03 08:53:52;;;;;;;39.78;21.92;;;8.20;94.50;;;;;;4012502;29;20568;-79
2024/03/03 08:55:54;;;;;;;36.72;22.27;;;8.20;94.50;;;;;;4015585;29;20049;-79
2024/03/03 08:57:56;;;;;;;36.38;20.95;;;8.20;94.60;;;;;;4006125;29;20162;-79
2024/03/03 08:59:58;;;;;;;39.33;21.48;;;8.30;94.50;;;;;;4008995;29;20488;-79
2024/03/03 09:02:02;;;;;;;35.13;21.05;;;8.40;94.40;;;;;;4011540;29;20085;-78
2024/03/03 09:04:03;;;;;;;35.13;20.13;;;8.50;94.20;;;;;;4006620;29;20113;-79
2024/03/03 09:06:05;;;;;;;34.10;20.42;;;8.50;94.00;;;;;;4012946;29;20050;-80
2024/03/03 09:08:07;;;;;;;33.97;19.95;;;8.60;93.70;;;;;;4016116;29;20141;-80
2024/03/03 09:10:09;;;;;;;33.63;20.75;;;8.70;93.80;;;;;;4014195;29;20050;-80
2024/03/03 09:12:10;;;;;;;32.45;19.88;;;8.70;93.80;;;;;;4018425;29;20635;-78
2024/03/03 09:14:13;;;;;;;33.55;20.17;;;8.80;93.60;;;;;;4012723;29;20106;-80
2024/03/03 09:16:14;;;;;;;33.55;20.10;;;8.90;93.50;;;;;;4010619;29;20058;-79
2024/03/03 09:18:18;;;;;;;35.53;20.70;;;9.00;93.50;;;;;;4005397;29;20061;-77
2024/03/03 09:20:20;;;;;;;33.17;19.40;;;9.00;93.40;;;;;;4013217;29;20057;-77
2024/03/03 09:22:22;;;;;;;32.65;19.67;;;9.10;93.20;;;;;;4011465;29;20098;-77
2024/03/03 09:24:25;;;;;;;34.80;20.27;;;9.10;93.30;;;;;;4010041;29;20061;-80
2024/03/03 09:26:27;;;;;;;32.28;20.02;;;9.10;93.20;;;;;;4011068;29;20479;-78
2024/03/03 09:28:29;;;;;;;33.10;20.00;;;9.10;93.20;;;;;;4012792;29;20101;-78
2024/03/03 09:30:29;;;;;;;31.60;19.35;;;9.10;93.20;;;;;;4016819;29;20086;-80
2024/03/03 09:32:31;;;;;;;33.63;19.75;;;9.20;93.20;;;;;;4008903;29;20058;-78
2024/03/03 09:34:34;;;;;;;32.03;19.42;;;9.20;93.10;;;;;;4016643;29;20064;-80
2024/03/03 09:36:35;;;;;;;34.55;20.65;;;9.20;93.10;;;;;;4010183;29;20098;-80
2024/03/03 09:38:37;;;;;;;31.73;19.90;;;9.30;93.20;;;;;;4006096;29;20501;-78
2024/03/03 09:40:39;;;;;;;33.13;20.25;;;9.30;93.40;;;;;;4014041;29;20050;-79
2024/03/03 09:42:45;;;;;;;30.77;18.98;;;9.40;93.40;;;;;;4012562;29;20079;-80
2024/03/03 09:44:51;;;;;;;30.58;19.45;;;9.50;93.20;;;;;;4009182;29;20045;-79
2024/03/03 09:46:54;;;;;;;;;;;9.70;93.00;;;;;;4012688;29;20042;-80
2024/03/03 09:48:57;;;;;;;33.03;19.73;;;9.70;92.70;;;;;;4008025;29;19977;-80
2024/03/03 09:51:00;;;;;;;31.75;20.02;;;9.80;92.80;;;;;;4005917;29;20050;-80
2024/03/03 09:53:03;;;;;;;28.10;18.10;;;9.80;92.60;;;;;;4006267;29;20050;-80
2024/03/03 09:55:06;;;;;;;28.02;17.90;;;10.00;92.50;;;;;;4013293;29;20050;-82
2024/03/03 09:57:13;;;;;;;25.85;16.15;;;10.10;92.00;;;;;;4015318;29;20097;-80
2024/03/03 09:59:14;;;;;;;29.20;18.15;;;10.20;91.80;;;;;;4005811;29;20073;-79
2024/03/03 10:01:20;;;;;;;26.02;17.23;;;10.30;92.20;;;;;;4011722;29;20076;-81
2024/03/03 10:03:25;;;;;;;26.77;17.40;;;10.30;91.30;;;;;;4009020;29;20042;-79
2024/03/03 10:05:28;;;;;;;26.58;16.55;;;10.50;91.40;;;;;;4021252;29;20113;-79
2024/03/03 10:07:38;;;;;;;25.42;16.02;;;10.60;91.10;;;;;;4009188;29;20054;-81
2024/03/03 10:09:41;;;;;;;25.17;16.40;;;10.70;90.70;;;;;;4010462;29;20598;-79
2024/03/03 10:11:44;;;;;;;24.85;16.23;;;10.70;90.50;;;;;;4017454;29;20072;-78
2024/03/03 10:13:48;;;;;;;26.45;16.85;;;10.70;90.40;;;;;;4009838;29;20082;-80
2024/03/03 10:15:53;;;;;;;26.55;17.65;;;10.80;90.40;;;;;;4017386;29;20667;-80
2024/03/03 10:17:54;;;;;;;22.88;15.25;;;10.80;90.50;;;;;;4014926;29;20061;-78
2024/03/03 10:20:00;;;;;;;26.02;15.80;;;10.90;90.30;;;;;;4015376;29;20053;-80
2024/03/03 10:22:03;;;;;;;24.75;15.90;;;11.00;90.00;;;;;;3998546;29;20210;-79
2024/03/03 10:24:27;;;;;;;23.92;15.00;;;11.00;90.00;;;;;;4018014;29;20058;-78
2024/03/03 10:26:36;;;;;;;24.13;14.68;;;11.10;89.60;;;;;;4011349;29;20053;-79
2024/03/03 10:28:37;;;;;;;23.35;15.63;;;11.20;89.40;;;;;;4014331;29;20495;-79
2024/03/03 10:30:40;;;;;;;22.52;15.52;;;11.20;89.70;;;;;;4021234;29;20049;-79
2024/03/03 10:32:43;;;;;;;22.73;14.77;;;11.20;89.60;;;;;;4014215;29;20144;-80
2024/03/03 10:34:56;;;;;;;21.83;15.30;;;11.20;89.90;;;;;;4021869;29;20057;-77
2024/03/03 10:37:02;;;;;;;21.45;14.00;;;11.40;90.10;;;;;;4008458;29;20086;-79
2024/03/03 10:39:05;;;;;;;;;;;11.50;89.20;;;;;;4016882;29;20080;-78
2024/03/03 10:41:09;;;;;;;20.48;13.30;;;11.50;88.60;;;;;;4014567;29;19963;-80
2024/03/03 10:43:11;;;;;;;20.05;13.38;;;11.60;88.40;;;;;;4007419;29;20157;-79
2024/03/03 10:45:12;;;;;;;19.98;13.20;;;11.70;88.40;;;;;;4015485;29;20114;-79
2024/03/03 10:47:14;;;;;;;21.40;14.18;;;11.80;87.90;;;;;;4009878;29;20129;-81
2024/03/03 10:49:19;;;;;;;24.45;15.63;;;11.80;87.70;;;;;;4012601;29;20089;-81
2024/03/03 10:51:22;;;;;;;23.90;14.80;;;11.80;87.40;;;;;;4015368;29;20106;-81
2024/03/03 10:53:24;;;;;;;19.83;13.68;;;11.90;87.50;;;;;;4009024;29;20098;-80
2024/03/03 10:55:27;;;;;;;19.48;12.88;;;12.00;87.50;;;;;;4019855;29;20350;-79
2024/03/03 10:57:32;;;;;;;19.70;12.65;;;12.10;86.60;;;;;;4007829;29;20393;-80
2024/03/03 10:59:34;;;;;;;18.27;12.30;;;12.10;86.60;;;;;;4011102;29;20102;-81
2024/03/03 11:01:37;;;;;;;17.80;12.10;;;12.20;85.90;;;;;;4015421;29;20118;-79
2024/03/03 11:03:41;;;;;;;17.50;11.85;;;12.30;85.00;;;;;;4016635;29;20480;-80
2024/03/03 11:05:43;;;;;;;17.52;11.27;;;12.40;85.40;;;;;;4014688;29;20058;-81
2024/03/03 11:07:45;;;;;;;14.40;10.07;;;12.50;84.30;;;;;;4011131;29;20054;-78
2024/03/03 11:09:47;;;;;;;15.07;10.60;;;12.60;83.20;;;;;;4007413;29;20106;-79
2024/03/03 11:11:58;;;;;;;15.80;10.15;;;12.70;82.60;;;;;;4014976;29;20485;-80
2024/03/03 11:14:10;;;;;;;14.23;9.30;;;12.80;81.90;;;;;;4014490;29;20049;-79
2024/03/03 11:16:13;;;;;;;13.23;9.20;;;12.90;81.30;;;;;;4011261;29;20061;-79
2024/03/03 11:18:24;;;;;;;12.60;8.50;;;13.00;80.80;;;;;;4014669;29;20524;-77
2024/03/03 11:20:35;;;;;;;12.15;8.48;;;13.10;79.80;;;;;;4012880;29;20515;-80
2024/03/03 11:22:43;;;;;;;11.73;8.55;;;13.20;78.90;;;;;;4018033;29;20132;-80
2024/03/03 11:24:53;;;;;;;13.85;8.65;;;13.30;79.10;;;;;;4021323;29;20105;-78
2024/03/03 11:27:04;;;;;;;10.95;7.40;;;13.40;79.70;;;;;;4010391;29;20466;-79
2024/03/03 11:29:10;;;;;;;10.45;7.22;;;13.50;78.70;;;;;;4018757;29;20057;-77
2024/03/03 11:31:12;;;;;;;9.75;6.78;;;13.60;77.60;;;;;;4015205;29;20097;-79
2024/03/03 11:33:15;;;;;;;10.52;7.00;;;13.70;76.60;;;;;;4012799;29;20175;-76
2024/03/03 11:35:17;;;;;;;10.68;6.20;;;13.80;76.10;;;;;;4015838;29;20057;-79
2024/03/03 11:37:19;;;;;;;9.70;6.30;;;13.90;75.60;;;;;;4016374;29;20070;-78
2024/03/03 11:39:24;;;;;;;10.25;6.82;;;14.00;75.00;;;;;;4011202;29;20061;-78
2024/03/03 11:41:29;;;;;;;9.52;6.70;;;14.10;75.30;;;;;;4013894;29;20049;-78
2024/03/03 11:43:33;;;;;;;9.32;6.90;;;14.20;74.80;;;;;;4011071;29;20548;-76
2024/03/03 11:45:48;;;;;;;9.05;6.05;;;14.30;74.70;;;;;;4018125;29;20057;-76
2024/03/03 11:47:50;;;;;;;8.35;5.72;;;14.40;72.50;;;;;;4014408;29;20044;-78
2024/03/03 11:49:52;;;;;;;8.93;5.18;;;14.50;73.70;;;;;;4017523;29;20057;-78
2024/03/03 11:51:53;;;;;;;7.25;4.65;;;14.70;73.60;;;;;;4012557;29;20081;-79
2024/03/03 11:54:01;;;;;;;6.32;4.22;;;14.80;73.80;;;;;;4020266;29;20045;-79
2024/03/03 11:56:03;;;;;;;6.57;4.18;;;14.90;70.20;;;;;;4006097;29;20082;-79
2024/03/03 11:58:06;;;;;;;6.68;4.03;;;15.00;68.30;;;;;;4014399;29;20075;-78
2024/03/03 12:00:13;;;;;;;6.78;3.72;;;15.10;69.40;;;;;;4018611;29;20085;-78
2024/03/03 12:02:17;;;;;;;6.20;3.72;;;15.20;68.20;;;;;;4015543;29;20093;-79
2024/03/03 12:04:19;;;;;;;5.78;3.30;;;15.30;66.70;;;;;;4007527;29;20054;-78
2024/03/03 12:06:20;;;;;;;6.05;3.40;;;15.40;65.50;;;;;;4015802;29;20476;-79
2024/03/03 12:08:25;;;;;;;6.13;3.80;;;15.50;65.60;;;;;;4022090;29;20053;-78
2024/03/03 12:10:30;;;;;;;5.07;3.38;;;15.60;65.30;;;;;;4009379;29;20057;-80
2024/03/03 12:12:31;;;;;;;6.05;3.45;;;15.70;60.50;;;;;;4012210;29;20045;-80
2024/03/03 12:14:33;;;;;;;8.88;4.07;;;15.80;62.80;;;;;;4015452;29;20049;-78
2024/03/03 12:16:35;;;;;;;5.35;3.35;;;15.90;63.20;;;;;;4019706;29;20109;-78
2024/03/03 12:18:38;;;;;;;4.57;2.72;;;16.00;61.40;;;;;;4008147;29;20053;-79
2024/03/03 12:20:42;;;;;;;3.85;2.10;;;16.10;58.70;;;;;;4021720;29;20045;-76
2024/03/03 12:22:45;;;;;;;3.78;1.50;;;16.20;54.80;;;;;;4012912;29;20479;-78
2024/03/03 12:24:56;;;;;;;2.63;0.90;;;16.30;49.60;;;;;;4013236;29;20939;-79
2024/03/03 12:26:59;;;;;;;1.70;0.75;;;16.50;43.40;;;;;;4006605;29;20465;-80
2024/03/03 12:29:00;;;;;;;2.67;0.90;;;16.60;41.60;;;;;;4010472;29;20050;-77
2024/03/03 12:31:03;;;;;;;1.95;0.80;;;16.70;41.00;;;;;;4013194;29;20066;-78
2024/03/03 12:33:05;;;;;;;2.10;0.60;;;16.90;41.00;;;;;;4011390;29;20056;-77
2024/03/03 12:35:09;;;;;;;2.95;0.75;;;17.00;38.10;;;;;;4013840;29;20075;-77
2024/03/03 12:37:11;;;;;;;1.90;0.82;;;17.10;37.50;;;;;;4017600;29;20073;-78
2024/03/03 12:39:13;;;;;;;1.98;0.80;;;17.30;38.50;;;;;;4016683;29;20113;-77
2024/03/03 12:41:15;;;;;;;1.70;0.60;;;17.50;37.60;;;;;;4011219;29;20053;-79
2024/03/03 12:43:17;;;;;;;2.28;0.73;;;17.70;36.20;;;;;;4015436;29;20260;-78
2024/03/03 12:45:19;;;;;;;3.08;0.80;;;17.80;35.30;;;;;;4007712;29;20469;-77
2024/03/03 12:47:21;;;;;;;3.53;0.80;;;17.80;35.00;;;;;;4017173;29;20050;-81
2024/03/03 12:49:23;;;;;;;2.10;0.77;;;18.00;35.20;;;;;;4011815;29;20098;-77
2024/03/03 12:51:27;;;;;;;1.60;0.75;;;18.10;35.60;;;;;;4013192;29;20061;-76
2024/03/03 12:53:29;;;;;;;1.77;0.70;;;18.20;34.60;;;;;;4005227;29;20445;-78
2024/03/03 12:55:31;;;;;;;1.85;0.90;;;18.40;34.90;;;;;;4013335;29;20054;-76
2024/03/03 12:57:34;;;;;;;3.58;1.60;;;18.50;37.20;;;;;;4019127;29;20148;-76
2024/03/03 12:59:37;;;;;;;2.60;0.82;;;18.70;34.40;;;;;;4010809;29;20050;-79
2024/03/03 13:01:40;;;;;;;3.22;1.17;;;18.80;32.80;;;;;;4012018;29;20057;-76
2024/03/03 13:03:44;;;;;;;1.83;0.70;;;18.90;31.20;;;;;;4017255;29;20130;-78
2024/03/03 13:05:48;;;;;;;3.28;0.70;;;18.90;29.80;;;;;;4012082;29;20088;-80
2024/03/03 13:07:53;;;;;;;1.80;0.60;;;19.00;29.40;;;;;;4018570;29;20149;-75
2024/03/03 13:09:54;;;;;;;;;;;19.20;29.40;;;;;;4014794;29;20053;-76
2024/03/03 13:11:56;;;;;;;1.98;0.60;;;19.30;29.10;;;;;;4027199;29;19928;-76
2024/03/03 13:13:57;;;;;;;1.92;0.70;;;19.30;29.20;;;;;;4017019;29;20110;-79
2024/03/03 13:16:01;;;;;;;2.88;0.77;;;19.20;29.30;;;;;;4014101;29;20049;-78
2024/03/03 13:18:06;;;;;;;1.55;0.60;;;19.40;31.70;;;;;;4015913;29;20105;-80
2024/03/03 13:20:12;;;;;;;;;;;19.70;30.00;;;;;;4006973;29;20103;-78
2024/03/03 13:22:17;;;;;;;1.80;0.60;;;19.90;29.70;;;;;;4012283;29;19971;-80
2024/03/03 13:24:21;;;;;;;4.90;1.20;;;20.10;31.40;;;;;;4013857;29;20504;-77
2024/03/03 13:26:22;;;;;;;2.78;0.70;;;20.40;33.80;;;;;;4010987;29;20516;-76
2024/03/03 13:28:24;;;;;;;2.63;0.88;;;20.50;32.30;;;;;;4008764;29;20050;-74
2024/03/03 13:30:25;;;;;;;2.08;0.80;;;20.60;32.20;;;;;;4006177;29;20484;-74
2024/03/03 13:32:27;;;;;;;2.63;1.02;;;20.70;32.20;;;;;;4017548;29;20101;-76
2024/03/03 13:34:27;;;;;;;5.82;0.98;;;21.00;31.60;;;;;;4007982;29;20457;-77
2024/03/03 13:36:29;;;;;;;5.80;1.90;;;21.20;30.40;;;;;;4009403;29;20049;-76
2024/03/03 13:38:31;;;;;;;2.45;0.90;;;21.30;29.00;;;;;;4015456;29;20121;-75
2024/03/03 13:40:35;;;;;;;2.67;0.90;;;21.50;29.90;;;;;;4011874;29;20165;-76
2024/03/03 13:42:36;;;;;;;2.78;0.90;;;21.70;28.70;;;;;;4017699;29;20054;-76
2024/03/03 13:44:41;;;;;;;2.35;0.85;;;21.50;28.30;;;;;;4010530;29;20054;-75
2024/03/03 13:46:43;;;;;;;2.88;1.00;;;21.80;28.20;;;;;;4017402;29;20049;-76
2024/03/03 13:48:45;;;;;;;2.28;0.98;;;22.30;29.00;;;;;;4012747;29;20049;-78
2024/03/03 13:50:47;;;;;;;1.83;0.75;;;23.20;27.30;;;;;;4018154;29;20086;-78
2024/03/03 13:52:49;;;;;;;1.83;0.82;;;25.10;25.70;;;;;;4015499;29;20141;-73
2024/03/03 13:54:51;;;;;;;3.03;0.90;;;27.00;23.60;;;;;;4009142;29;20058;-75
2024/03/03 13:56:54;;;;;;;1.77;0.73;;;27.00;23.10;;;;;;4015726;29;20053;-77
2024/03/03 13:58:56;;;;;;;2.83;1.00;;;27.10;21.80;;;;;;4015167;29;20102;-79
2024/03/03 14:00:59;;;;;;;3.35;0.90;;;28.20;22.20;;;;;;4013236;29;20057;-77
2024/03/03 14:03:02;;;;;;;3.75;0.90;;;28.90;22.00;;;;;;4010205;29;20053;-75
2024/03/03 14:05:04;;;;;;;2.10;0.80;;;29.10;21.00;;;;;;4008762;29;20424;-75
2024/03/03 14:07:06;;;;;;;2.40;0.90;;;28.50;21.10;;;;;;4017254;29;20102;-75
2024/03/03 14:09:08;;;;;;;2.08;0.80;;;29.40;21.70;;;;;;4016331;29;20457;-76
2024/03/03 14:11:11;;;;;;;2.30;0.95;;;29.90;20.90;;;;;;4015388;29;20066;-74
2024/03/03 14:13:14;;;;;;;2.70;1.20;;;30.30;18.70;;;;;;4013605;29;20049;-73
2024/03/03 14:15:16;;;;;;;2.53;1.02;;;30.70;19.30;;;;;;4019704;29;20259;-75
2024/03/03 14:17:18;;;;;;;2.65;0.80;;;30.30;20.10;;;;;;4021615;29;20061;-74
2024/03/03 14:19:20;;;;;;;2.03;0.80;;;29.30;20.60;;;;;;4022470;29;20053;-76
2024/03/03 14:21:22;;;;;;;2.83;1.27;;;28.90;21.00;;;;;;4015141;29;20469;-74
2024/03/03 14:23:24;;;;;;;2.10;1.10;;;29.30;19.30;;;;;;4012334;29;20050;-74
2024/03/03 14:25:26;;;;;;;3.28;2.08;;;30.40;20.30;;;;;;4018138;29;20488;-79
2024/03/03 14:27:28;;;;;;;2.95;1.35;;;31.50;18.60;;;;;;4015040;29;20430;-80
2024/03/03 14:29:31;;;;;;;2.53;0.95;;;32.80;18.10;;;;;;4008701;29;20453;-79
2024/03/03 14:31:33;;;;;;;2.95;1.02;;;31.60;17.40;;;;;;4008434;29;20057;-80
2024/03/03 14:33:34;;;;;;;2.47;1.23;;;31.90;18.00;;;;;;4007991;29;20454;-79
2024/03/03 14:35:36;;;;;;;3.25;1.20;;;32.60;17.80;;;;;;4014491;29;20101;-79
2024/03/03 14:37:38;;;;;;;2.42;1.50;;;32.70;17.70;;;;;;4028210;29;20384;-77
2024/03/03 14:39:40;;;;;;;2.13;1.20;;;33.10;17.00;;;;;;4015444;29;20054;-79
2024/03/03 14:41:42;;;;;;;2.83;1.00;;;32.70;17.60;;;;;;4021427;29;20057;-79
2024/03/03 14:43:45;;;;;;;4.00;1.17;;;32.70;17.90;;;;;;4008367;29;20062;-79
2024/03/03 14:45:48;;;;;;;3.53;1.60;;;32.40;17.60;;;;;;4010639;29;20084;-78
2024/03/03 14:47:49;;;;;;;4.97;4.57;;;33.90;17.10;;;;;;4012630;29;20121;-78
2024/03/03 14:49:51;;;;;;;4.38;3.97;;;37.30;15.80;;;;;;4007378;29;20110;-78
2024/03/03 14:51:53;;;;;;;5.93;5.43;;;40.10;14.60;;;;;;4014475;29;20531;-78
2024/03/03 14:53:55;;;;;;;3.63;3.03;;;41.70;13.90;;;;;;4008137;29;20446;-79
2024/03/03 14:55:57;;;;;;;2.80;2.50;;;43.20;13.80;;;;;;4009174;29;20117;-80
2024/03/03 14:57:57;;;;;;;3.15;2.80;;;43.90;13.00;;;;;;4014500;29;20450;-77
2024/03/03 14:59:59;;;;;;;2.90;2.40;;;44.20;12.20;;;;;;4008005;29;20053;-78
2024/03/03 15:02:03;;;;;;;4.95;2.97;;;44.40;12.50;;;;;;4014089;29;20124;-79
2024/03/03 15:04:08;;;;;;;4.80;2.20;;;44.50;11.90;;;;;;4010738;29;20123;-78
2024/03/03 15:06:13;;;;;;;2.35;1.00;;;45.00;12.40;;;;;;4011318;29;20086;-78
2024/03/03 15:08:14;;;;;;;2.60;0.87;;;44.70;11.70;;;;;;4011252;29;20088;-80
2024/03/03 15:10:16;;;;;;;10.23;6.65;;;43.50;12.10;;;;;;4010638;29;20057;-78
2024/03/03 15:12:17;;;;;;;4.68;3.40;;;42.90;12.50;;;;;;4011568;29;20472;-77
2024/03/03 15:14:19;;;;;;;3.65;1.83;;;42.70;12.20;;;;;;4013970;29;20065;-76
2024/03/03 15:16:21;;;;;;;2.63;1.60;;;42.10;12.60;;;;;;4010002;29;20045;-75
2024/03/03 15:18:23;;;;;;;3.75;1.40;;;41.50;12.80;;;;;;4009985;29;20118;-78
2024/03/03 15:20:26;;;;;;;3.05;1.15;;;40.70;12.60;;;;;;4014170;29;20057;-79
2024/03/03 15:22:27;;;;;;;2.60;1.00;;;40.00;12.80;;;;;;4007614;29;20080;-76
2024/03/03 15:24:29;;;;;;;2.35;1.00;;;38.30;13.00;;;;;;4018747;29;20104;-75
2024/03/03 15:26:31;;;;;;;1.98;1.00;;;37.80;13.10;;;;;;4015303;29;20045;-78
2024/03/03 15:28:33;;;;;;;2.35;0.90;;;37.70;13.10;;;;;;4009222;29;20057;-77
2024/03/03 15:30:35;;;;;;;2.60;0.90;;;37.20;12.50;;;;;;4007718;29;20050;-79
2024/03/03 15:32:37;;;;;;;2.60;0.75;;;36.70;13.10;;;;;;4018284;29;20060;-77
2024/03/03 15:34:40;;;;;;;1.92;0.80;;;35.90;13.10;;;;;;4008992;29;20098;-78
2024/03/03 15:36:42;;;;;;;2.65;0.90;;;34.50;13.80;;;;;;4012165;29;20052;-77
2024/03/03 15:38:44;;;;;;;1.65;0.77;;;33.40;14.70;;;;;;4009700;29;20056;-75
2024/03/03 15:40:46;;;;;;;4.53;2.40;;;32.10;15.50;;;;;;4012883;29;20403;-79
2024/03/03 15:42:47;;;;;;;4.30;1.98;;;30.90;15.60;;;;;;4013498;29;20058;-78
2024/03/03 15:44:48;;;;;;;3.70;1.00;;;30.10;16.30;;;;;;4006645;29;20046;-82
2024/03/03 15:46:50;;;;;;;3.72;0.98;;;29.80;17.00;;;;;;4011505;29;20189;-81
2024/03/03 15:48:53;;;;;;;2.58;1.00;;;29.40;17.20;;;;;;4013616;29;20055;-78
2024/03/03 15:50:56;;;;;;;3.00;1.08;;;29.00;17.70;;;;;;4014429;29;20054;-81
2024/03/03 15:52:57;;;;;;;1.95;0.93;;;28.60;18.20;;;;;;4015960;29;20054;-80
2024/03/03 15:54:58;;;;;;;3.30;1.10;;;29.40;17.70;;;;;;3991403;29;20058;-81
2024/03/03 15:57:00;;;;;;;2.50;1.08;;;30.80;17.50;;;;;;4019900;29;20049;-82
2024/03/03 15:59:03;;;;;;;3.33;1.33;;;31.90;16.80;;;;;;4009163;29;20050;-83
2024/03/03 16:01:05;;;;;;;2.42;0.95;;;32.40;16.60;;;;;;4008593;29;20138;-84
2024/03/03 16:03:06;;;;;;;2.97;1.10;;;32.80;16.50;;;;;;4014598;29;20054;-82
2024/03/03 16:05:08;;;;;;;2.58;1.10;;;32.90;16.60;;;;;;4015677;29;20101;-83
2024/03/03 16:07:12;;;;;;;2.92;1.13;;;32.70;16.40;;;;;;4009153;29;20075;-82
2024/03/03 16:09:13;;;;;;;2.13;1.02;;;32.40;16.30;;;;;;4008479;29;20050;-83
2024/03/03 16:11:15;;;;;;;2.58;1.10;;;32.10;16.80;;;;;;4009882;29;20046;-82
2024/03/03 16:13:17;;;;;;;2.70;1.17;;;32.00;17.10;;;;;;4014520;29;20454;-81
2024/03/03 16:15:19;;;;;;;3.30;1.20;;;31.80;16.90;;;;;;4009212;29;20102;-81
2024/03/03 16:17:20;;;;;;;2.75;1.08;;;31.10;17.10;;;;;;4022236;29;20045;-81
2024/03/03 16:19:22;;;;;;;2.75;1.10;;;30.40;17.90;;;;;;4008472;29;20102;-81
2024/03/03 16:21:24;;;;;;;2.58;1.10;;;30.30;18.00;;;;;;4009088;29;20106;-81
2024/03/03 16:23:27;;;;;;;4.00;1.30;;;30.20;17.70;;;;;;4009106;29;20053;-83
2024/03/03 16:25:28;;;;;;;3.38;1.10;;;29.80;17.90;;;;;;4023233;29;20049;-80
2024/03/03 16:27:30;;;;;;;4.25;1.30;;;29.20;18.70;;;;;;4009069;29;20178;-80
2024/03/03 16:29:32;;;;;;;2.63;1.15;;;28.30;18.80;;;;;;4009187;29;20053;-82
2024/03/03 16:31:36;;;;;;;2.72;1.20;;;27.60;19.60;;;;;;4010093;29;20400;-81
2024/03/03 16:33:37;;;;;;;5.30;1.40;;;27.00;20.00;;;;;;4021482;29;20057;-81